createdAt,value
2023-01-23T00:01:19.813Z,1.10
2023-01-23T00:03:47.689Z,1.10
2023-01-23T00:06:18.039Z,1.10
2023-01-23T00:08:47.315Z,1.10
2023-01-23T00:11:17.010Z,1.10
2023-01-23T00:13:45.164Z,1.10
2023-01-23T00:16:16.454Z,1.10
2023-01-23T00:18:44.403Z,1.10
2023-01-23T00:21:14.593Z,1.10
2023-01-23T00:23:44.049Z,1.10
2023-01-23T00:26:15.516Z,1.10
2023-01-23T00:28:43.595Z,1.10
2023-01-23T00:31:13.160Z,1.10
2023-01-23T00:33:43.045Z,1.00
2023-01-23T00:36:12.387Z,1.00
2023-01-23T00:38:40.618Z,1.00
2023-01-23T00:41:08.429Z,1.00
2023-01-23T00:43:36.163Z,1.00
2023-01-23T00:46:03.927Z,1.00
2023-01-23T00:48:32.239Z,1.00
2023-01-23T00:51:01.347Z,1.00
2023-01-23T00:53:29.119Z,1.00
2023-01-23T00:55:56.878Z,1.00
2023-01-23T00:58:24.722Z,1.00
2023-01-23T01:00:52.500Z,0.90
2023-01-23T01:03:20.419Z,0.90
2023-01-23T01:05:48.420Z,0.90
2023-01-23T01:08:17.493Z,0.90
2023-01-23T01:10:45.471Z,1.00
2023-01-23T01:13:13.539Z,0.90
2023-01-23T01:15:41.360Z,1.00
2023-01-23T01:18:09.089Z,1.00
2023-01-23T01:20:36.818Z,1.00
2023-01-23T01:23:06.094Z,1.00
2023-01-23T01:25:35.346Z,0.90
2023-01-23T01:28:03.392Z,0.90
2023-01-23T01:30:31.122Z,0.90
2023-01-23T01:32:58.845Z,0.90
2023-01-23T01:35:26.725Z,0.90
2023-01-23T01:37:54.484Z,1.00
2023-01-23T01:40:24.592Z,1.00
2023-01-23T01:42:57.316Z,1.00
2023-01-23T01:46:02.595Z,0.90
2023-01-23T01:48:34.365Z,0.90
2023-01-23T01:51:05.021Z,1.00
2023-01-23T01:53:34.360Z,1.00
2023-01-23T01:56:02.302Z,0.90
2023-01-23T01:58:31.793Z,0.90
2023-01-23T02:00:59.654Z,0.90
2023-01-23T02:03:27.633Z,0.90
2023-01-23T02:05:55.381Z,0.90
2023-01-23T02:08:27.427Z,0.90
2023-01-23T02:10:55.450Z,0.90
2023-01-23T02:13:30.235Z,0.90
2023-01-23T02:16:00.799Z,0.90
2023-01-23T02:18:30.019Z,0.90
2023-01-23T02:21:00.718Z,0.90
2023-01-23T02:23:38.115Z,0.90
2023-01-23T02:26:11.456Z,0.90
2023-01-23T02:28:42.341Z,0.90
2023-01-23T02:31:10.512Z,0.90
2023-01-23T02:33:47.671Z,0.90
2023-01-23T02:36:15.753Z,0.90
2023-01-23T02:38:52.114Z,0.90
2023-01-23T02:41:25.757Z,0.90
2023-01-23T02:43:54.573Z,0.90
2023-01-23T02:46:22.445Z,0.90
2023-01-23T02:48:50.142Z,0.90
2023-01-23T02:51:17.967Z,0.90
2023-01-23T02:53:45.774Z,0.90
2023-01-23T02:56:13.514Z,0.90
2023-01-23T02:59:00.098Z,0.90
2023-01-23T03:01:28.314Z,0.90
2023-01-23T03:04:03.520Z,0.90
2023-01-23T03:06:36.111Z,0.90
2023-01-23T03:09:08.094Z,0.90
2023-01-23T03:11:37.353Z,0.80
2023-01-23T03:14:08.127Z,0.80
2023-01-23T03:16:38.310Z,0.80
2023-01-23T03:19:09.025Z,0.80
2023-01-23T03:21:40.241Z,0.80
2023-01-23T03:24:09.941Z,0.80
2023-01-23T03:26:39.372Z,0.80
2023-01-23T03:29:26.334Z,0.80
2023-01-23T03:31:54.270Z,0.70
2023-01-23T03:34:22.785Z,0.70
2023-01-23T03:36:50.501Z,0.70
2023-01-23T03:39:50.180Z,0.70
2023-01-23T03:42:17.930Z,0.60
2023-01-23T03:44:47.123Z,0.60
2023-01-23T03:47:14.947Z,0.60
2023-01-23T03:49:42.646Z,0.50
2023-01-23T03:52:10.431Z,0.50
2023-01-23T03:54:38.178Z,0.50
2023-01-23T03:57:05.903Z,0.50
2023-01-23T03:59:33.656Z,0.50
2023-01-23T04:02:04.843Z,0.50
2023-01-23T04:04:32.781Z,0.40
2023-01-23T04:07:00.505Z,0.40
2023-01-23T04:09:28.424Z,0.40
2023-01-23T04:11:56.405Z,0.40
2023-01-23T04:14:25.546Z,0.40
2023-01-23T04:16:53.752Z,0.30
2023-01-23T04:19:22.876Z,0.40
2023-01-23T04:21:50.935Z,0.40
2023-01-23T04:24:19.363Z,0.40
2023-01-23T04:26:47.195Z,0.40
2023-01-23T04:29:14.914Z,0.40
2023-01-23T04:31:42.741Z,0.40
2023-01-23T04:34:10.504Z,0.40
2023-01-23T04:36:39.783Z,0.40
2023-01-23T04:39:07.520Z,0.40
2023-01-23T04:41:35.489Z,0.40
2023-01-23T04:44:20.020Z,0.40
2023-01-23T04:46:49.673Z,0.40
2023-01-23T04:49:18.595Z,0.40
2023-01-23T04:51:48.254Z,0.40
2023-01-23T04:54:16.074Z,0.40
2023-01-23T04:56:44.318Z,0.40
2023-01-23T04:59:12.116Z,0.40
2023-01-23T05:01:40.305Z,0.40
2023-01-23T05:04:08.075Z,0.40
2023-01-23T05:06:35.802Z,0.40
2023-01-23T05:09:05.479Z,0.40
2023-01-23T05:11:33.217Z,0.30
2023-01-23T05:14:00.946Z,0.30
2023-01-23T05:16:28.671Z,0.30
2023-01-23T05:18:56.386Z,0.30
2023-01-23T05:21:24.097Z,0.30
2023-01-23T05:23:51.817Z,0.30
2023-01-23T05:26:20.872Z,0.30
2023-01-23T05:28:48.615Z,0.30
2023-01-23T05:31:16.584Z,0.30
2023-01-23T05:33:44.429Z,0.30
2023-01-23T05:36:12.179Z,0.30
2023-01-23T05:38:40.261Z,0.30
2023-01-23T05:41:07.973Z,0.30
2023-01-23T05:43:37.041Z,0.30
2023-01-23T05:46:05.024Z,0.30
2023-01-23T05:48:32.853Z,0.30
2023-01-23T05:51:03.667Z,0.30
2023-01-23T05:53:31.526Z,0.30
2023-01-23T05:55:59.264Z,0.30
2023-01-23T05:58:27.021Z,0.40
2023-01-23T06:00:56.205Z,0.40
2023-01-23T06:03:23.940Z,0.40
2023-01-23T06:05:51.702Z,0.40
2023-01-23T06:08:19.417Z,0.40
2023-01-23T06:10:47.259Z,0.40
2023-01-23T06:13:15.013Z,0.30
2023-01-23T06:15:43.272Z,0.30
2023-01-23T06:18:12.443Z,0.30
2023-01-23T06:20:40.194Z,0.30
2023-01-23T06:23:07.917Z,0.20
2023-01-23T06:25:36.860Z,0.20
2023-01-23T06:28:04.890Z,0.20
2023-01-23T06:30:32.660Z,0.20
2023-01-23T06:33:00.430Z,0.20
2023-01-23T06:35:29.535Z,0.20
2023-01-23T06:37:57.258Z,0.20
2023-01-23T06:40:24.991Z,0.20
2023-01-23T06:42:56.500Z,0.30
2023-01-23T06:45:24.209Z,0.30
2023-01-23T06:47:53.440Z,0.30
2023-01-23T06:50:21.490Z,0.30
2023-01-23T06:52:50.651Z,0.30
2023-01-23T06:55:18.503Z,0.40
2023-01-23T06:57:46.260Z,0.40
2023-01-23T07:00:15.644Z,0.40
2023-01-23T07:02:45.489Z,0.40
2023-01-23T07:05:13.518Z,0.50
2023-01-23T07:07:41.251Z,0.50
2023-01-23T07:10:12.052Z,0.50
2023-01-23T07:12:39.771Z,0.50
2023-01-23T07:15:08.770Z,0.60
2023-01-23T07:17:36.485Z,0.60
2023-01-23T07:20:04.541Z,0.60
2023-01-23T07:22:32.282Z,0.60
2023-01-23T07:24:59.986Z,0.60
2023-01-23T07:27:29.090Z,0.60
2023-01-23T07:29:56.880Z,0.60
2023-01-23T07:32:24.620Z,0.60
2023-01-23T07:34:53.053Z,0.60
2023-01-23T07:37:20.820Z,0.60
2023-01-23T07:39:49.938Z,0.60
2023-01-23T07:42:17.662Z,0.60
2023-01-23T07:44:46.753Z,0.70
2023-01-23T07:47:14.509Z,0.70
2023-01-23T07:49:42.238Z,0.70
2023-01-23T07:52:10.011Z,0.70
2023-01-23T07:54:37.942Z,0.70
2023-01-23T07:57:05.646Z,0.80
2023-01-23T07:59:33.572Z,0.80
2023-01-23T08:02:02.648Z,0.80
2023-01-23T08:04:30.357Z,0.80
2023-01-23T08:06:58.094Z,0.80
2023-01-23T08:09:25.835Z,0.80
2023-01-23T08:11:53.595Z,0.80
2023-01-23T08:14:21.522Z,0.80
2023-01-23T08:16:50.710Z,0.80
2023-01-23T08:19:20.483Z,0.90
2023-01-23T08:21:48.301Z,0.90
2023-01-23T08:24:16.039Z,0.90
2023-01-23T08:26:44.393Z,0.90
2023-01-23T08:29:12.695Z,0.90
2023-01-23T08:31:40.749Z,0.90
2023-01-23T08:34:08.489Z,0.90
2023-01-23T08:36:37.540Z,0.90
2023-01-23T08:39:05.566Z,0.90
2023-01-23T08:41:33.276Z,1.00
2023-01-23T08:44:01.660Z,1.00
2023-01-23T08:46:29.982Z,1.00
2023-01-23T08:48:57.689Z,1.00
2023-01-23T08:51:27.146Z,1.00
2023-01-23T08:53:56.224Z,1.00
2023-01-23T08:56:25.588Z,1.00
2023-01-23T08:58:53.372Z,1.10
2023-01-23T09:01:23.480Z,1.10
2023-01-23T09:03:51.513Z,1.10
2023-01-23T09:06:20.879Z,1.10
2023-01-23T09:08:48.973Z,1.10
2023-01-23T09:11:19.078Z,1.20
2023-01-23T09:13:47.221Z,1.20
2023-01-23T09:16:15.698Z,1.20
2023-01-23T09:18:43.493Z,1.20
2023-01-23T09:21:13.754Z,1.20
2023-01-23T09:23:41.471Z,1.20
2023-01-23T09:26:10.868Z,1.20
2023-01-23T09:28:42.683Z,1.30
2023-01-23T09:31:12.462Z,1.30
2023-01-23T09:33:40.852Z,1.30
2023-01-23T09:36:09.877Z,1.30
2023-01-23T09:38:37.810Z,1.30
2023-01-23T09:41:11.340Z,1.40
2023-01-23T09:43:47.044Z,1.40
2023-01-23T09:46:21.432Z,1.40
2023-01-23T09:48:53.780Z,1.40
2023-01-23T09:51:26.602Z,1.40
2023-01-23T09:53:59.061Z,1.50
2023-01-23T09:56:32.456Z,1.50
2023-01-23T09:59:08.494Z,1.50
2023-01-23T10:01:37.289Z,1.60
2023-01-23T10:04:06.221Z,1.60
2023-01-23T10:06:54.018Z,1.60
2023-01-23T10:09:33.836Z,1.60
2023-01-23T10:12:08.534Z,1.70
2023-01-23T10:14:55.174Z,1.70
2023-01-23T10:17:31.000Z,1.70
2023-01-23T10:20:13.639Z,1.70
2023-01-23T10:22:48.118Z,1.70
2023-01-23T10:25:20.085Z,1.80
2023-01-23T10:27:50.485Z,1.80
2023-01-23T10:30:25.270Z,1.80
2023-01-23T10:32:57.936Z,1.90
2023-01-23T10:35:33.054Z,1.90
2023-01-23T10:38:06.022Z,1.90
2023-01-23T10:40:51.171Z,1.90
2023-01-23T10:43:21.054Z,1.90
2023-01-23T10:45:51.454Z,2.00
2023-01-23T10:48:40.464Z,2.00
2023-01-23T10:51:31.133Z,2.00
2023-01-23T10:54:07.135Z,2.10
2023-01-23T10:56:38.528Z,2.10
2023-01-23T10:59:08.329Z,2.10
2023-01-23T11:01:40.338Z,2.10
2023-01-23T11:04:12.412Z,2.20
2023-01-23T11:06:40.213Z,2.20
2023-01-23T11:09:20.610Z,2.20
2023-01-23T11:12:01.504Z,2.20
2023-01-23T11:14:29.560Z,2.20
2023-01-23T11:17:14.809Z,2.20
2023-01-23T11:19:43.835Z,2.30
2023-01-23T11:22:27.554Z,2.20
2023-01-23T11:24:55.305Z,2.30
2023-01-23T11:27:27.810Z,2.30
2023-01-23T11:30:27.918Z,2.30
2023-01-23T11:33:00.136Z,2.30
2023-01-23T11:35:45.340Z,2.30
2023-01-23T11:38:19.788Z,2.40
2023-01-23T11:40:52.585Z,2.40
2023-01-23T11:43:20.511Z,2.40
2023-01-23T11:46:08.232Z,2.50
2023-01-23T11:48:50.626Z,2.50
2023-01-23T11:51:23.015Z,2.50
2023-01-23T11:54:00.021Z,2.60
2023-01-23T11:56:52.780Z,2.60
2023-01-23T11:59:46.742Z,2.60
2023-01-23T12:02:46.287Z,2.70
2023-01-23T12:05:41.245Z,2.70
2023-01-23T12:08:20.382Z,2.70
2023-01-23T12:11:00.517Z,2.70
2023-01-23T12:13:48.625Z,2.70
2023-01-23T12:16:23.528Z,2.70
2023-01-23T12:19:08.228Z,2.70
2023-01-23T12:21:46.412Z,2.70
2023-01-23T12:24:33.971Z,2.70
2023-01-23T12:27:07.139Z,2.70
2023-01-23T12:30:06.992Z,2.80
2023-01-23T12:32:46.483Z,2.80
2023-01-23T12:35:30.726Z,2.80
2023-01-23T12:38:23.994Z,2.80
2023-01-23T12:40:57.059Z,2.80
2023-01-23T12:43:36.293Z,2.80
2023-01-23T12:46:09.877Z,2.80
2023-01-23T12:48:43.980Z,2.80
2023-01-23T12:51:16.115Z,2.80
2023-01-23T12:53:47.523Z,2.80
2023-01-23T12:56:18.740Z,2.80
2023-01-23T12:58:53.972Z,2.80
2023-01-23T13:01:40.729Z,2.80
2023-01-23T13:04:27.370Z,2.80
2023-01-23T13:07:04.289Z,2.70
2023-01-23T13:09:48.940Z,2.70
2023-01-23T13:12:22.169Z,2.70
2023-01-23T13:15:12.944Z,2.70
2023-01-23T13:17:44.750Z,2.70
2023-01-23T13:20:46.545Z,2.70
2023-01-23T13:23:31.611Z,2.70
2023-01-23T13:26:33.994Z,2.70
2023-01-23T13:29:03.861Z,2.70
2023-01-23T13:31:46.599Z,2.70
2023-01-23T13:34:40.458Z,2.70
2023-01-23T13:37:50.922Z,2.70
2023-01-23T13:40:22.034Z,2.80
2023-01-23T13:42:51.416Z,2.80
2023-01-23T13:45:37.256Z,2.80
2023-01-23T14:20:19.181Z,2.50
2023-01-23T14:22:47.147Z,2.50
2023-01-23T14:25:18.093Z,2.50
2023-01-23T14:27:53.741Z,2.50
2023-01-23T14:30:26.506Z,2.50
2023-01-23T14:32:56.425Z,2.50
2023-01-23T14:35:26.941Z,2.50
2023-01-23T14:37:57.620Z,2.50
2023-01-23T14:40:28.758Z,2.50
2023-01-23T14:43:01.825Z,2.50
2023-01-23T14:45:32.973Z,2.40
2023-01-23T14:48:07.276Z,2.40
2023-01-23T14:50:55.841Z,2.40
2023-01-23T14:53:28.335Z,2.40
2023-01-23T14:55:58.136Z,2.40
2023-01-23T14:58:28.218Z,2.30
2023-01-23T15:00:56.835Z,2.30
2023-01-23T15:03:41.310Z,2.30
2023-01-23T15:06:14.329Z,2.30
2023-01-23T15:08:42.838Z,2.30
2023-01-23T15:11:13.219Z,2.30
2023-01-23T15:13:48.251Z,2.30
2023-01-23T15:16:19.754Z,2.20
2023-01-23T15:18:56.969Z,2.20
2023-01-23T15:21:32.745Z,2.20
2023-01-23T15:24:17.919Z,2.20
2023-01-23T15:26:56.674Z,2.20
2023-01-23T15:29:24.589Z,2.20
2023-01-23T15:31:53.563Z,2.10
2023-01-23T15:34:26.431Z,2.10
2023-01-23T15:36:57.599Z,2.10
2023-01-23T15:39:28.326Z,2.10
2023-01-23T15:41:58.826Z,2.10
2023-01-23T15:44:29.594Z,2.10
2023-01-23T15:47:00.961Z,2.00
2023-01-23T15:49:30.710Z,2.10
2023-01-23T15:52:02.276Z,2.00
2023-01-23T15:54:34.041Z,2.00
2023-01-23T15:57:09.266Z,2.00
2023-01-23T15:59:38.153Z,1.90
2023-01-23T16:02:08.259Z,1.90
2023-01-23T16:04:40.204Z,2.00
2023-01-23T16:07:09.127Z,1.90
2023-01-23T16:09:39.053Z,1.90
2023-01-23T16:12:07.246Z,1.90
2023-01-23T16:14:35.110Z,1.90
2023-01-23T16:17:15.941Z,1.90
2023-01-23T16:19:46.275Z,1.80
2023-01-23T16:22:25.636Z,1.80
2023-01-23T16:24:53.879Z,1.80
2023-01-23T16:27:27.153Z,1.80
2023-01-23T16:29:55.773Z,1.80
2023-01-23T16:32:25.000Z,1.80
2023-01-23T16:34:54.350Z,1.70
2023-01-23T16:37:22.290Z,1.70
2023-01-23T16:39:50.229Z,1.70
2023-01-23T16:42:21.466Z,1.70
2023-01-23T16:44:49.365Z,1.70
2023-01-23T16:47:17.401Z,1.70
2023-01-23T16:49:54.040Z,1.70
2023-01-23T16:52:26.164Z,1.70
2023-01-23T16:54:55.491Z,1.70
2023-01-23T16:57:24.515Z,1.70
2023-01-23T16:59:56.096Z,1.70
2023-01-23T17:02:28.778Z,1.70
2023-01-23T17:04:56.683Z,1.70
2023-01-23T17:07:25.901Z,1.60
2023-01-23T17:09:53.723Z,1.60
2023-01-23T17:12:27.436Z,1.60
2023-01-23T17:14:55.603Z,1.60
2023-01-23T17:17:29.075Z,1.60
2023-01-23T17:19:57.531Z,1.60
2023-01-23T17:22:30.365Z,1.60
2023-01-23T17:24:58.382Z,1.60
2023-01-23T17:27:26.278Z,1.60
2023-01-23T17:29:54.088Z,1.60
2023-01-23T17:32:29.359Z,1.60
2023-01-23T17:34:58.090Z,1.60
2023-01-23T17:37:27.367Z,1.60
2023-01-23T17:39:55.369Z,1.60
2023-01-23T17:42:23.237Z,1.60
2023-01-23T17:44:51.170Z,1.70
2023-01-23T17:47:19.363Z,1.60
2023-01-23T17:49:51.414Z,1.60
2023-01-23T17:52:21.620Z,1.70
2023-01-23T17:54:51.128Z,1.70
2023-01-23T17:57:18.919Z,1.60
2023-01-23T17:59:46.734Z,1.60
2023-01-23T18:02:27.634Z,1.70
2023-01-23T18:04:55.610Z,1.70
2023-01-23T18:07:23.444Z,1.60
2023-01-23T18:09:55.367Z,1.60
2023-01-23T18:12:31.300Z,1.60
2023-01-23T18:15:09.938Z,1.60
2023-01-23T18:17:46.018Z,1.60
2023-01-23T18:20:22.633Z,1.60
2023-01-23T18:22:51.391Z,1.60
2023-01-23T18:25:23.985Z,1.60
2023-01-23T18:27:55.295Z,1.60
2023-01-23T18:30:41.861Z,1.60
2023-01-23T18:33:29.159Z,1.60
2023-01-23T18:36:17.409Z,1.60
2023-01-23T18:39:09.789Z,1.60
2023-01-23T18:41:44.916Z,1.60
2023-01-23T18:44:17.075Z,1.60
2023-01-23T18:46:45.267Z,1.60
2023-01-23T18:49:18.933Z,1.60
2023-01-23T18:52:03.265Z,1.60
2023-01-23T18:54:36.412Z,1.60
2023-01-23T18:57:21.666Z,1.60
2023-01-23T19:00:00.002Z,1.60
2023-01-23T19:02:33.754Z,1.50
2023-01-23T19:05:22.102Z,1.50
2023-01-23T19:07:50.529Z,1.50
2023-01-23T19:10:20.933Z,1.50
2023-01-23T19:13:06.228Z,1.50
2023-01-23T19:15:41.881Z,1.50
2023-01-23T19:18:35.017Z,1.50
2023-01-23T19:21:15.665Z,1.50
2023-01-23T19:23:48.018Z,1.40
2023-01-23T19:26:17.159Z,1.40
2023-01-23T19:28:47.009Z,1.50
2023-01-23T19:31:21.699Z,1.50
2023-01-23T19:33:49.759Z,1.50
2023-01-23T19:36:17.711Z,1.50
2023-01-23T19:38:45.878Z,1.50
2023-01-23T19:41:20.444Z,1.50
2023-01-23T19:43:51.534Z,1.50
2023-01-23T19:46:20.310Z,1.50
2023-01-23T19:48:48.645Z,1.50
2023-01-23T19:51:19.906Z,1.50
2023-01-23T19:53:47.826Z,1.50
2023-01-23T19:56:17.839Z,1.50
2023-01-23T19:58:46.186Z,1.50
2023-01-23T20:01:23.405Z,1.50
2023-01-23T20:03:52.122Z,1.50
2023-01-23T20:06:20.058Z,1.50
2023-01-23T20:08:47.989Z,1.50
2023-01-23T20:11:15.890Z,1.50
2023-01-23T20:13:43.686Z,1.50
2023-01-23T20:16:17.935Z,1.50
2023-01-23T20:18:48.068Z,1.50
2023-01-23T20:21:16.794Z,1.60
2023-01-23T20:23:44.635Z,1.60
2023-01-23T20:26:14.099Z,1.60
2023-01-23T20:28:42.298Z,1.60
2023-01-23T20:31:12.665Z,1.60
2023-01-23T20:33:41.343Z,1.50
2023-01-23T20:36:11.833Z,1.60
2023-01-23T20:38:40.534Z,1.50
2023-01-23T20:41:10.670Z,1.60
2023-01-23T20:43:39.450Z,1.50
2023-01-23T20:46:08.533Z,1.60
2023-01-23T20:48:37.115Z,1.50
2023-01-23T20:51:07.854Z,1.60
2023-01-23T20:53:39.899Z,1.60
2023-01-23T20:56:09.481Z,1.60
2023-01-23T20:58:57.381Z,1.60
2023-01-23T21:01:26.941Z,1.60
2023-01-23T21:03:54.821Z,1.60
2023-01-23T21:06:23.111Z,1.60
2023-01-23T21:08:52.270Z,1.60
2023-01-23T21:11:21.032Z,1.60
2023-01-23T21:13:53.452Z,1.60
2023-01-23T21:16:21.378Z,1.60
2023-01-23T21:18:49.313Z,1.60
2023-01-23T21:21:20.156Z,1.60
2023-01-23T21:23:49.181Z,1.60
2023-01-23T21:26:20.065Z,1.60
2023-01-23T21:28:51.571Z,1.60
2023-01-23T21:35:09.995Z,1.60
2023-01-23T21:37:38.120Z,1.60
2023-01-23T21:40:07.297Z,1.60
2023-01-23T21:42:36.462Z,1.60
2023-01-23T21:45:04.831Z,1.60
2023-01-23T21:47:32.656Z,1.60
2023-01-23T21:50:00.469Z,1.60
2023-01-23T21:52:29.572Z,1.70
2023-01-23T21:54:57.796Z,1.60
2023-01-23T21:57:25.686Z,1.60
2023-01-23T22:00:13.855Z,1.70
2023-01-23T22:02:42.102Z,1.70
2023-01-23T22:05:10.469Z,1.70
2023-01-23T22:07:38.349Z,1.70
2023-01-23T22:10:07.240Z,1.70
2023-01-23T22:12:35.073Z,1.70
2023-01-23T22:15:04.511Z,1.70
2023-01-23T22:17:32.340Z,1.70
2023-01-23T22:20:00.296Z,1.70
2023-01-23T22:22:28.165Z,1.70
2023-01-23T22:24:55.956Z,1.70
2023-01-23T22:27:24.217Z,1.70
2023-01-23T22:29:52.139Z,1.70
2023-01-23T22:32:21.410Z,1.60
2023-01-23T22:34:49.230Z,1.60
2023-01-23T22:37:18.486Z,1.60
2023-01-23T22:39:46.315Z,1.70
2023-01-23T22:42:14.304Z,1.70
2023-01-23T22:44:42.151Z,1.70
2023-01-23T22:47:10.086Z,1.60
2023-01-23T22:49:39.312Z,1.60
2023-01-23T22:52:08.626Z,1.60
2023-01-23T22:54:37.207Z,1.60
2023-01-23T22:57:05.025Z,1.60
2023-01-23T22:59:32.862Z,1.60
2023-01-23T23:02:00.793Z,1.60
2023-01-23T23:04:28.741Z,1.60
2023-01-23T23:06:57.988Z,1.60
2023-01-23T23:09:25.803Z,1.60
2023-01-23T23:11:53.615Z,1.60
2023-01-23T23:14:21.462Z,1.60
2023-01-23T23:16:49.289Z,1.60
2023-01-23T23:19:17.095Z,1.60
2023-01-23T23:21:45.018Z,1.60
2023-01-23T23:24:14.506Z,1.60
2023-01-23T23:26:42.697Z,1.60
2023-01-23T23:29:10.557Z,1.60
2023-01-23T23:31:38.587Z,1.60
2023-01-23T23:34:06.601Z,1.60
2023-01-23T23:36:34.510Z,1.60
2023-01-23T23:39:02.493Z,1.60
2023-01-23T23:41:31.711Z,1.60
2023-01-23T23:43:59.547Z,1.60
2023-01-23T23:46:27.631Z,1.60
2023-01-23T23:48:55.470Z,1.60
2023-01-23T23:51:26.375Z,1.60
2023-01-23T23:53:55.466Z,1.60
2023-01-23T23:56:25.394Z,1.60
2023-01-23T23:58:55.403Z,1.60
